Time;durP1;ratioP1;P1;durP2;ratioP2;P2;SDS_P1;SDS_P2;PMS_P1;PMS_P2;Temp;Humidity;BMP_temperature;BMP_pressure;BME280_temperature;BME280_humidity;BME280_pressure;Samples;Min_cycle;Max_cycle;Signal;HPM_P1;HPM_P2
2023/04/04 00:00:37;;;;;;;14.45;7.38;;;0.30;54.00;;;;;;4676614;29;116758;-85
2023/04/04 00:03:05;;;;;;;16.98;7.35;;;0.30;54.00;;;;;;4706819;29;114931;-85
2023/04/04 00:05:34;;;;;;;17.23;8.00;;;0.40;54.10;;;;;;4706203;29;114800;-85
2023/04/04 00:08:03;;;;;;;20.08;7.95;;;0.30;54.30;;;;;;4690748;29;115482;-85
2023/04/04 00:10:31;;;;;;;16.10;7.90;;;0.30;54.40;;;;;;4706161;29;114937;-85
2023/04/04 00:13:00;;;;;;;13.60;7.35;;;0.30;54.50;;;;;;4690868;29;114597;-85
2023/04/04 00:15:27;;;;;;;14.65;7.93;;;0.30;54.60;;;;;;4691451;29;114873;-85
2023/04/04 00:17:56;;;;;;;15.98;6.85;;;0.20;54.70;;;;;;4690766;29;115288;-84
2023/04/04 00:20:23;;;;;;;15.50;7.88;;;0.20;54.80;;;;;;4691214;29;114839;-84
2023/04/04 00:22:51;;;;;;;14.18;7.88;;;0.10;54.90;;;;;;4691659;29;114923;-84
2023/04/04 00:25:20;;;;;;;15.00;7.18;;;0.10;55.00;;;;;;4692093;29;116275;-85
2023/04/04 00:27:47;;;;;;;13.68;7.07;;;0.10;55.20;;;;;;4676547;29;115331;-84
2023/04/04 00:30:15;;;;;;;16.25;8.30;;;0.10;55.40;;;;;;4661757;29;117550;-85
2023/04/04 00:32:42;;;;;;;15.70;7.80;;;0.10;55.40;;;;;;4722314;29;114538;-86
2023/04/04 00:35:10;;;;;;;17.35;7.68;;;0.10;55.60;;;;;;4691836;29;114650;-85
2023/04/04 00:37:37;;;;;;;19.17;7.80;;;0.10;55.70;;;;;;4690268;29;119047;-86
2023/04/04 00:40:08;;;;;;;14.40;7.40;;;0.10;55.70;;;;;;4690823;29;114649;-85
2023/04/04 00:42:36;;;;;;;15.43;7.28;;;0.10;55.80;;;;;;4705493;29;114653;-86
2023/04/04 00:45:06;;;;;;;16.77;8.20;;;0.00;55.80;;;;;;4691246;29;119362;-85
2023/04/04 00:47:35;;;;;;;14.68;7.68;;;0.10;56.00;;;;;;4691245;29;115404;-85
2023/04/04 00:50:03;;;;;;;15.43;7.70;;;0.00;56.00;;;;;;4705247;29;117815;-85
2023/04/04 00:52:31;;;;;;;14.48;8.02;;;0.00;56.10;;;;;;4691635;29;114577;-85
2023/04/04 00:55:00;;;;;;;17.05;8.10;;;0.00;56.30;;;;;;4715678;29;114621;-84
2023/04/04 00:57:28;;;;;;;16.23;7.97;;;0.00;56.30;;;;;;4692805;29;115329;-83
2023/04/04 00:59:59;;;;;;;16.27;8.52;;;0.00;56.40;;;;;;4701007;29;116509;-83
2023/04/04 01:02:29;;;;;;;16.15;8.10;;;-0.10;56.60;;;;;;4663738;29;114783;-84
2023/04/04 01:04:57;;;;;;;13.77;7.40;;;0.00;56.60;;;;;;4680060;29;114610;-82
2023/04/04 01:07:28;;;;;;;20.83;7.70;;;-0.10;56.70;;;;;;4707469;29;115302;-84
2023/04/04 01:10:29;;;;;;;15.40;7.88;;;-0.10;56.70;;;;;;4696147;29;114686;-84
2023/04/04 01:12:57;;;;;;;15.70;8.05;;;0.00;56.90;;;;;;4741563;29;114405;-84
2023/04/04 01:15:24;;;;;;;17.38;8.05;;;-0.10;56.90;;;;;;4715659;29;114532;-84
2023/04/04 01:17:54;;;;;;;14.65;7.80;;;-0.10;56.90;;;;;;4708232;29;115230;-84
2023/04/04 01:20:25;;;;;;;16.00;8.07;;;-0.10;57.00;;;;;;4679990;29;116912;-83
2023/04/04 01:22:55;;;;;;;14.98;7.43;;;-0.10;57.20;;;;;;4681398;29;114595;-84
2023/04/04 01:25:32;;;;;;;18.77;8.55;;;-0.10;57.10;;;;;;4695003;29;114544;-83
2023/04/04 01:28:07;;;;;;;14.00;7.03;;;-0.20;57.40;;;;;;4696742;29;115143;-84
2023/04/04 01:30:38;;;;;;;15.82;7.82;;;-0.20;57.40;;;;;;4722839;29;114896;-85
2023/04/04 01:33:19;;;;;;;15.40;8.45;;;-0.20;57.50;;;;;;4665802;29;114572;-85
2023/04/04 01:36:22;;;;;;;13.05;7.72;;;-0.20;57.70;;;;;;4710344;29;114609;-85
2023/04/04 01:39:17;;;;;;;15.50;7.80;;;-0.20;57.70;;;;;;4696307;29;115422;-85
2023/04/04 01:41:45;;;;;;;17.00;8.65;;;-0.30;57.70;;;;;;4694565;29;114685;-85
2023/04/04 01:44:14;;;;;;;14.80;8.38;;;-0.30;57.70;;;;;;4680398;29;114687;-85
2023/04/04 01:46:42;;;;;;;15.07;8.00;;;-0.30;57.90;;;;;;4705724;29;115007;-85
2023/04/04 01:49:11;;;;;;;15.98;7.88;;;-0.30;58.10;;;;;;4709014;29;115216;-84
2023/04/04 01:51:39;;;;;;;14.57;8.15;;;-0.30;58.20;;;;;;4709004;29;114717;-84
2023/04/04 01:54:07;;;;;;;18.10;8.10;;;-0.40;58.20;;;;;;4680629;29;114365;-84
2023/04/04 01:56:35;;;;;;;15.85;7.50;;;-0.30;58.20;;;;;;4709570;29;114503;-84
2023/04/04 01:59:02;;;;;;;17.00;8.20;;;-0.30;58.30;;;;;;4722759;29;115265;-84
2023/04/04 02:01:30;;;;;;;17.90;8.45;;;-0.30;58.40;;;;;;4723239;29;115151;-85
2023/04/04 02:03:57;;;;;;;15.10;8.77;;;-0.30;58.60;;;;;;4725222;29;115433;-84
2023/04/04 02:06:25;;;;;;;16.63;8.43;;;-0.30;58.60;;;;;;4723984;29;114584;-84
2023/04/04 02:08:52;;;;;;;15.43;8.85;;;-0.30;58.70;;;;;;4677957;29;118686;-84
2023/04/04 02:11:22;;;;;;;19.48;9.38;;;-0.30;58.60;;;;;;4723026;29;116949;-84
2023/04/04 02:13:50;;;;;;;15.85;8.15;;;-0.30;58.60;;;;;;4694229;29;114602;-83
2023/04/04 02:16:18;;;;;;;14.77;8.45;;;-0.30;58.70;;;;;;4693951;29;114803;-83
2023/04/04 02:18:46;;;;;;;16.15;8.50;;;-0.30;58.70;;;;;;4722920;29;115657;-83
2023/04/04 02:21:13;;;;;;;14.80;8.30;;;-0.30;58.60;;;;;;4708618;29;114709;-83
2023/04/04 02:23:40;;;;;;;15.93;8.45;;;-0.30;58.60;;;;;;4724509;29;114888;-83
2023/04/04 02:26:09;;;;;;;17.80;9.05;;;-0.30;58.70;;;;;;4694530;29;115118;-84
2023/04/04 02:28:36;;;;;;;16.52;8.40;;;-0.40;58.90;;;;;;4722935;29;115199;-84
2023/04/04 02:31:04;;;;;;;16.38;8.18;;;-0.40;58.90;;;;;;4722846;29;115231;-83
2023/04/04 02:33:32;;;;;;;14.80;8.73;;;-0.40;58.90;;;;;;4694146;29;114460;-83
2023/04/04 02:36:02;;;;;;;13.48;7.57;;;-0.40;58.90;;;;;;4680349;29;114864;-85
2023/04/04 02:38:30;;;;;;;12.63;7.25;;;-0.40;59.10;;;;;;4721807;29;115543;-85
2023/04/04 02:40:59;;;;;;;16.02;7.47;;;-0.50;59.20;;;;;;4693490;29;114755;-85
2023/04/04 02:43:29;;;;;;;11.43;7.20;;;-0.40;59.20;;;;;;4694576;29;114496;-85
2023/04/04 02:45:58;;;;;;;15.05;6.97;;;-0.40;59.20;;;;;;4708512;29;114526;-85
2023/04/04 02:48:32;;;;;;;15.63;7.90;;;-0.40;59.20;;;;;;4707753;29;115245;-83
2023/04/04 02:51:01;;;;;;;18.20;8.50;;;-0.40;59.20;;;;;;4707635;29;117929;-83
2023/04/04 02:53:31;;;;;;;15.02;7.80;;;-0.30;59.30;;;;;;4709503;29;114426;-84
2023/04/04 02:56:07;;;;;;;16.70;8.43;;;-0.30;59.30;;;;;;4726075;29;114491;-83
2023/04/04 02:58:34;;;;;;;14.02;7.60;;;-0.40;59.10;;;;;;4730452;29;114600;-83
2023/04/04 03:01:02;;;;;;;15.07;8.10;;;-0.40;59.10;;;;;;4677996;29;114703;-84
2023/04/04 03:03:34;;;;;;;17.65;7.63;;;-0.30;59.30;;;;;;4723878;29;114473;-85
2023/04/04 03:06:02;;;;;;;12.60;7.13;;;-0.30;59.60;;;;;;4710593;29;114651;-84
2023/04/04 03:08:29;;;;;;;16.33;8.02;;;-0.30;59.40;;;;;;4726837;29;114578;-84
2023/04/04 03:10:58;;;;;;;16.92;7.60;;;-0.30;59.30;;;;;;4710871;29;115747;-84
2023/04/04 03:13:26;;;;;;;14.32;7.55;;;-0.30;59.20;;;;;;4695549;29;114627;-84
2023/04/04 03:16:02;;;;;;;13.70;7.75;;;-0.30;59.60;;;;;;4724559;29;114467;-84
2023/04/04 03:18:41;;;;;;;13.15;7.65;;;-0.20;59.90;;;;;;4681791;29;114497;-84
2023/04/04 05:16:54;;;;;;;19.23;9.38;;;-1.50;60.70;;;;;;4708744;29;118832;-84
2023/04/04 05:19:59;;;;;;;20.40;10.02;;;-1.60;60.70;;;;;;4705439;29;114855;-85
2023/04/04 05:22:27;;;;;;;15.65;8.02;;;-1.40;61.20;;;;;;4719716;29;115382;-84
2023/04/04 05:24:56;;;;;;;17.65;9.75;;;-1.40;61.00;;;;;;4720851;29;114431;-82
2023/04/04 05:27:25;;;;;;;15.15;8.75;;;-1.40;60.80;;;;;;4721412;29;115189;-85
2023/04/04 05:29:57;;;;;;;15.65;8.40;;;-1.30;60.90;;;;;;4713605;29;114816;-84
2023/04/04 05:32:29;;;;;;;15.95;8.52;;;-1.30;61.00;;;;;;4692065;29;114642;-85
2023/04/04 05:35:06;;;;;;;18.15;9.35;;;-1.20;61.10;;;;;;4690835;29;116056;-85
2023/04/04 05:37:39;;;;;;;26.50;9.43;;;-1.10;61.10;;;;;;4701310;29;117828;-85
2023/04/04 05:40:10;;;;;;;18.20;10.15;;;-0.90;60.90;;;;;;4691601;29;114834;-85
2023/04/04 05:42:41;;;;;;;19.40;10.05;;;-0.90;60.70;;;;;;4670786;29;115604;-85
2023/04/04 05:45:09;;;;;;;18.98;9.68;;;-0.90;60.90;;;;;;4664771;29;114674;-85
2023/04/04 05:47:40;;;;;;;17.60;8.65;;;-0.90;60.80;;;;;;4719191;29;115474;-84
2023/04/04 05:50:07;;;;;;;18.83;8.73;;;-0.80;60.90;;;;;;4684464;29;115970;-85
2023/04/04 05:52:37;;;;;;;21.23;9.98;;;-0.80;60.80;;;;;;4678879;29;114576;-85
2023/04/04 05:55:10;;;;;;;19.50;9.05;;;-0.80;60.40;;;;;;4681028;29;114662;-84
2023/04/04 05:57:37;;;;;;;17.15;8.80;;;-0.80;60.40;;;;;;4668388;29;115502;-83
2023/04/04 06:00:08;;;;;;;16.08;9.02;;;-0.80;60.50;;;;;;4679176;29;114961;-83
2023/04/04 06:02:43;;;;;;;18.30;8.90;;;-0.80;60.30;;;;;;4680357;29;114708;-83
2023/04/04 06:05:16;;;;;;;19.35;9.85;;;-0.90;60.30;;;;;;4676694;29;114743;-84
2023/04/04 06:07:43;;;;;;;23.23;9.75;;;-0.80;60.40;;;;;;4702130;29;117260;-82
2023/04/04 06:10:11;;;;;;;22.83;9.48;;;-0.80;60.30;;;;;;4680942;29;115294;-83
2023/04/04 06:12:39;;;;;;;16.23;9.52;;;-0.80;60.30;;;;;;4711362;29;114745;-83
2023/04/04 06:15:10;;;;;;;25.33;10.18;;;-0.70;60.40;;;;;;4692612;29;116125;-83
2023/04/04 06:17:41;;;;;;;16.33;8.73;;;-0.70;60.30;;;;;;4671190;29;117594;-84
2023/04/04 06:20:32;;;;;;;16.35;9.18;;;-0.70;60.00;;;;;;4676587;29;114746;-83
2023/04/04 06:23:03;;;;;;;15.20;8.68;;;-0.70;59.70;;;;;;4680387;29;114772;-84
2023/04/04 06:25:33;;;;;;;15.57;8.07;;;-0.80;59.70;;;;;;4674540;29;114652;-83
2023/04/04 06:28:02;;;;;;;20.13;9.60;;;-0.90;59.60;;;;;;4669654;29;118852;-83
2023/04/04 06:30:33;;;;;;;19.20;8.65;;;-0.90;60.00;;;;;;4672103;29;117950;-84
2023/04/04 06:33:01;;;;;;;17.70;8.68;;;-0.90;60.00;;;;;;4660416;29;114507;-84
2023/04/04 06:35:30;;;;;;;22.92;9.45;;;-1.00;60.00;;;;;;4659481;29;115874;-83
2023/04/04 06:37:59;;;;;;;14.70;7.72;;;-1.00;59.80;;;;;;4668158;29;120108;-83
2023/04/04 06:40:28;;;;;;;18.30;9.05;;;-1.00;59.70;;;;;;4672491;29;117235;-84
2023/04/04 06:42:57;;;;;;;15.77;8.10;;;-1.10;59.70;;;;;;4670857;29;114826;-83
2023/04/04 06:45:32;;;;;;;16.30;8.30;;;-1.10;59.80;;;;;;4668706;29;114962;-83
2023/04/04 06:48:00;;;;;;;19.42;7.53;;;-1.00;59.60;;;;;;4659558;29;118243;-83
2023/04/04 06:50:31;;;;;;;16.10;8.93;;;-1.00;59.40;;;;;;4674126;29;114971;-84
2023/04/04 06:53:01;;;;;;;18.92;9.30;;;-1.10;59.50;;;;;;4661291;29;114686;-84
2023/04/04 06:55:29;;;;;;;18.25;8.98;;;-1.20;59.50;;;;;;4665448;29;114744;-84
2023/04/04 06:57:58;;;;;;;19.48;9.95;;;-1.10;59.60;;;;;;4707541;29;116041;-84
2023/04/04 07:00:26;;;;;;;27.33;9.45;;;-1.00;59.80;;;;;;4700588;29;116759;-83
2023/04/04 07:02:59;;;;;;;17.05;8.77;;;-0.90;59.60;;;;;;4691777;29;114638;-83
2023/04/04 07:05:27;;;;;;;19.40;8.88;;;-0.80;59.40;;;;;;4722345;29;114501;-84
2023/04/04 07:07:55;;;;;;;16.60;8.35;;;-0.80;59.40;;;;;;4689503;29;120554;-84
2023/04/04 07:10:23;;;;;;;18.27;9.73;;;-0.70;59.60;;;;;;4659342;29;116234;-82
2023/04/04 07:12:50;;;;;;;17.02;9.05;;;-0.60;59.40;;;;;;4671988;29;114494;-83
2023/04/04 07:15:18;;;;;;;19.38;8.70;;;-0.40;59.20;;;;;;4678925;29;114942;-83
2023/04/04 07:17:45;;;;;;;18.88;8.85;;;-0.40;58.80;;;;;;4677004;29;117059;-82
2023/04/04 07:20:13;;;;;;;22.40;9.00;;;-0.40;58.70;;;;;;4674913;29;117692;-83
2023/04/04 07:22:41;;;;;;;16.40;8.15;;;-0.40;58.70;;;;;;4681779;29;114458;-84
2023/04/04 07:25:12;;;;;;;17.48;6.88;;;-0.30;58.50;;;;;;4684362;29;114745;-83
2023/04/04 07:27:39;;;;;;;12.98;6.43;;;-0.30;58.00;;;;;;4683741;29;116396;-83
2023/04/04 07:30:10;;;;;;;11.93;5.85;;;-0.30;57.70;;;;;;4683419;29;117486;-84
2023/04/04 07:32:41;;;;;;;15.00;7.20;;;-0.20;57.70;;;;;;4682502;29;114510;-84
2023/04/04 07:35:09;;;;;;;11.75;5.88;;;-0.20;57.30;;;;;;4679567;29;114628;-84
2023/04/04 07:37:37;;;;;;;12.73;6.60;;;-0.30;57.10;;;;;;4677222;29;115415;-83
2023/04/04 07:40:08;;;;;;;15.68;6.68;;;-0.30;57.00;;;;;;4663711;29;118268;-84
2023/04/04 07:42:38;;;;;;;13.80;7.07;;;-0.30;57.40;;;;;;4679283;29;114586;-84
2023/04/04 07:45:07;;;;;;;13.75;6.90;;;-0.10;57.40;;;;;;4677982;29;114639;-83
2023/04/04 07:47:37;;;;;;;18.25;7.05;;;0.00;56.50;;;;;;4679463;29;117269;-84
2023/04/04 07:50:06;;;;;;;14.63;6.10;;;0.00;56.50;;;;;;4664816;29;117881;-83
2023/04/04 07:52:34;;;;;;;12.75;6.13;;;0.00;56.30;;;;;;4663026;29;114807;-85
2023/04/04 07:55:02;;;;;;;15.38;6.70;;;0.00;56.20;;;;;;4676840;30;114919;-84
2023/04/04 07:57:30;;;;;;;13.02;6.97;;;0.00;56.30;;;;;;4678579;29;117763;-84
2023/04/04 07:59:58;;;;;;;20.20;7.05;;;0.10;56.30;;;;;;4679031;29;114917;-85
2023/04/04 08:02:26;;;;;;;11.10;6.55;;;0.10;56.10;;;;;;4677546;29;114830;-84
2023/04/04 08:04:59;;;;;;;13.23;6.55;;;0.30;56.00;;;;;;4662324;29;114882;-84
2023/04/04 08:07:28;;;;;;;15.10;6.35;;;0.40;56.00;;;;;;4679384;29;115925;-84
2023/04/04 08:09:58;;;;;;;10.88;5.70;;;0.60;55.90;;;;;;4679505;29;117915;-84
2023/04/04 08:12:25;;;;;;;14.00;6.55;;;0.90;55.20;;;;;;4677015;29;115649;-86
2023/04/04 08:14:53;;;;;;;12.80;5.68;;;1.10;54.50;;;;;;4675484;29;114878;-84
2023/04/04 08:17:20;;;;;;;11.88;6.03;;;1.20;53.70;;;;;;4685000;29;118126;-84
2023/04/04 08:19:48;;;;;;;10.20;5.20;;;1.10;52.60;;;;;;4680655;29;115249;-84
2023/04/04 08:22:15;;;;;;;13.75;5.80;;;1.10;52.70;;;;;;4666597;29;116544;-84
2023/04/04 08:24:43;;;;;;;11.15;5.65;;;1.10;52.60;;;;;;4664968;29;114612;-84
2023/04/04 08:27:14;;;;;;;9.63;5.30;;;1.20;52.60;;;;;;4665527;29;116906;-84
2023/04/04 08:29:42;;;;;;;12.48;5.55;;;1.20;52.30;;;;;;4664330;29;117687;-84
2023/04/04 08:32:10;;;;;;;12.20;5.32;;;1.20;52.30;;;;;;4668370;29;116641;-85
2023/04/04 08:34:38;;;;;;;15.00;5.53;;;1.20;52.20;;;;;;4708877;29;114796;-84
2023/04/04 08:37:07;;;;;;;10.98;5.25;;;1.20;51.90;;;;;;4649842;29;118279;-85
2023/04/04 08:39:35;;;;;;;12.27;4.95;;;1.10;51.50;;;;;;4702811;29;114692;-85
2023/04/04 08:42:04;;;;;;;10.18;5.10;;;1.00;51.40;;;;;;4706441;29;114928;-84
2023/04/04 08:44:34;;;;;;;11.32;5.55;;;1.00;51.80;;;;;;4676544;29;116638;-84
2023/04/04 08:47:06;;;;;;;10.80;5.85;;;1.00;52.20;;;;;;4705632;29;116052;-84
2023/04/04 08:49:37;;;;;;;12.88;5.82;;;1.10;52.50;;;;;;4692212;29;114561;-84
2023/04/04 08:52:06;;;;;;;12.55;6.32;;;1.20;52.50;;;;;;4722277;29;114857;-83
2023/04/04 08:54:34;;;;;;;13.50;6.70;;;1.50;52.50;;;;;;4676234;29;115030;-83
2023/04/04 08:57:07;;;;;;;11.27;6.20;;;1.70;51.90;;;;;;4686507;29;117451;-84
2023/04/04 08:59:36;;;;;;;10.75;6.03;;;1.80;51.50;;;;;;4691065;29;114660;-85
2023/04/04 09:02:08;;;;;;;12.48;6.25;;;1.90;51.40;;;;;;4677698;29;114546;-84
2023/04/04 09:04:36;;;;;;;12.57;6.45;;;2.10;51.10;;;;;;4722059;29;114689;-84
2023/04/04 09:07:05;;;;;;;13.23;5.80;;;2.10;50.90;;;;;;4675728;29;115320;-85
2023/04/04 09:09:33;;;;;;;8.82;4.72;;;2.20;50.60;;;;;;4671317;29;115274;-83
2023/04/04 09:12:03;;;;;;;12.13;4.97;;;2.20;50.00;;;;;;4701712;29;114904;-84
2023/04/04 09:14:32;;;;;;;11.70;4.97;;;2.20;50.20;;;;;;4701530;29;115830;-83
2023/04/04 09:16:59;;;;;;;12.30;5.03;;;2.30;50.00;;;;;;4705926;29;115167;-83
2023/04/04 09:19:30;;;;;;;11.60;5.05;;;2.40;49.90;;;;;;4719749;29;115297;-84
2023/04/04 09:21:59;;;;;;;12.93;4.78;;;2.50;49.60;;;;;;4722208;29;114872;-84
2023/04/04 09:24:39;;;;;;;11.05;5.15;;;2.40;48.90;;;;;;4720759;29;114607;-85
2023/04/04 09:27:14;;;;;;;10.13;5.30;;;2.40;48.60;;;;;;4694381;29;117643;-84
2023/04/04 09:29:44;;;;;;;11.65;4.60;;;2.40;48.70;;;;;;4709088;29;114736;-84
2023/04/04 09:32:15;;;;;;;12.20;5.43;;;2.40;48.60;;;;;;4659438;29;114487;-83
2023/04/04 09:34:43;;;;;;;8.73;4.70;;;2.30;48.80;;;;;;4686836;29;114855;-85
2023/04/04 09:37:14;;;;;;;8.73;5.28;;;2.40;49.10;;;;;;4677736;29;115347;-84
2023/04/04 09:39:42;;;;;;;9.52;4.30;;;2.40;48.50;;;;;;4676597;29;118999;-86
2023/04/04 09:42:10;;;;;;;8.93;4.75;;;2.30;47.90;;;;;;4677930;29;115821;-84
2023/04/04 09:44:38;;;;;;;8.68;4.05;;;2.30;47.90;;;;;;4708526;29;114412;-84
2023/04/04 09:47:32;;;;;;;8.80;4.45;;;2.30;48.10;;;;;;4707806;29;115749;-84
2023/04/04 09:50:00;;;;;;;8.77;4.38;;;2.30;47.50;;;;;;4691420;29;117436;-84
2023/04/04 09:52:37;;;;;;;9.15;4.75;;;2.30;46.80;;;;;;4679659;29;114606;-86
2023/04/04 09:55:20;;;;;;;7.60;4.15;;;2.30;47.10;;;;;;4677995;29;115020;-85
2023/04/04 09:57:49;;;;;;;11.95;4.28;;;2.40;46.70;;;;;;4722614;29;115817;-84
2023/04/04 10:00:18;;;;;;;9.18;4.75;;;2.50;46.90;;;;;;4688275;29;116248;-84
2023/04/04 10:02:48;;;;;;;8.98;4.22;;;2.70;47.00;;;;;;4689104;29;114509;-84
2023/04/04 10:05:15;;;;;;;9.10;3.92;;;2.80;46.70;;;;;;4692128;29;114546;-84
2023/04/04 10:07:46;;;;;;;7.95;4.10;;;2.80;46.10;;;;;;4703069;29;115311;-85
2023/04/04 10:10:14;;;;;;;8.23;4.68;;;2.80;45.70;;;;;;4672018;29;115618;-84
2023/04/04 10:12:45;;;;;;;9.98;3.97;;;2.80;45.80;;;;;;4691043;29;115346;-83
2023/04/04 10:15:16;;;;;;;8.73;4.07;;;2.90;45.10;;;;;;4665628;29;114567;-84
2023/04/04 10:17:47;;;;;;;10.52;4.80;;;2.80;45.30;;;;;;4689035;29;116515;-84
2023/04/04 10:20:14;;;;;;;8.63;4.15;;;2.90;45.30;;;;;;4677000;29;114998;-84
2023/04/04 10:22:42;;;;;;;6.57;3.55;;;3.00;45.20;;;;;;4690640;29;114464;-85
2023/04/04 10:25:11;;;;;;;8.85;4.30;;;3.00;44.60;;;;;;4695867;29;114786;-84
2023/04/04 10:27:38;;;;;;;8.93;3.97;;;2.90;44.70;;;;;;4672071;29;115760;-85
2023/04/04 10:30:07;;;;;;;13.38;4.80;;;3.00;44.90;;;;;;4672869;29;114802;-83
2023/04/04 10:33:07;;;;;;;7.70;4.55;;;3.20;44.60;;;;;;4684525;29;114576;-84
2023/04/04 10:35:35;;;;;;;9.73;4.75;;;3.50;44.20;;;;;;4690319;29;114799;-84
2023/04/04 10:38:05;;;;;;;10.35;4.38;;;3.60;44.30;;;;;;4682017;29;119933;-84
2023/04/04 10:40:38;;;;;;;7.68;4.50;;;3.60;43.30;;;;;;4689248;29;115387;-84
2023/04/04 10:43:07;;;;;;;7.40;3.88;;;3.40;42.80;;;;;;4690350;29;114589;-84
2023/04/04 10:45:38;;;;;;;7.47;4.18;;;3.10;43.00;;;;;;4701515;29;114456;-85
2023/04/04 10:48:10;;;;;;;8.00;3.78;;;3.00;43.00;;;;;;4675444;29;119091;-83
2023/04/04 10:50:53;;;;;;;7.82;4.40;;;3.00;43.20;;;;;;4670418;29;119002;-83
2023/04/04 10:53:22;;;;;;;8.38;4.32;;;3.00;43.80;;;;;;4662248;29;114883;-84
2023/04/04 10:55:50;;;;;;;10.05;4.53;;;3.10;43.60;;;;;;4687751;29;114689;-85
2023/04/04 10:58:21;;;;;;;6.35;3.80;;;3.10;43.40;;;;;;4659952;29;119219;-84
2023/04/04 11:00:51;;;;;;;8.68;4.05;;;3.10;43.10;;;;;;4691953;29;114910;-83
2023/04/04 11:03:21;;;;;;;8.85;3.78;;;3.10;43.40;;;;;;4674514;29;114644;-83
2023/04/04 11:05:50;;;;;;;7.57;4.05;;;3.20;43.50;;;;;;4706108;29;114609;-84
2023/04/04 11:08:23;;;;;;;8.15;4.57;;;3.30;43.40;;;;;;4677989;29;118051;-83
2023/04/04 11:10:54;;;;;;;11.97;4.10;;;3.30;43.70;;;;;;4662829;29;116589;-84
2023/04/04 11:13:35;;;;;;;9.40;4.55;;;3.30;43.20;;;;;;4691394;29;116069;-84
2023/04/04 11:16:08;;;;;;;6.55;3.75;;;3.30;42.30;;;;;;4676880;29;114635;-84
2023/04/04 11:18:42;;;;;;;8.75;3.42;;;3.20;42.60;;;;;;4691045;29;116410;-85
2023/04/04 11:21:15;;;;;;;10.18;3.63;;;3.10;42.80;;;;;;4704440;29;116244;-84
2023/04/04 11:24:01;;;;;;;7.85;3.78;;;3.20;42.80;;;;;;4686979;29;115369;-84
2023/04/04 11:26:29;;;;;;;7.32;3.83;;;3.20;42.80;;;;;;4689430;29;115276;-84
2023/04/04 11:29:02;;;;;;;9.40;3.92;;;3.20;42.60;;;;;;4703784;29;115881;-84
2023/04/04 11:31:38;;;;;;;11.02;4.38;;;3.10;42.30;;;;;;4660354;29;116616;-84
2023/04/04 11:34:10;;;;;;;9.25;5.22;;;3.10;42.70;;;;;;4684921;29;114806;-84
2023/04/04 11:36:37;;;;;;;7.65;4.60;;;3.10;42.80;;;;;;4689522;29;115020;-83
2023/04/04 11:39:21;;;;;;;9.00;5.32;;;3.00;42.60;;;;;;4703369;29;115270;-83
2023/04/04 11:41:53;;;;;;;7.03;3.95;;;2.80;43.00;;;;;;4701313;29;114689;-84
2023/04/04 11:44:22;;;;;;;10.23;4.22;;;2.80;43.10;;;;;;4703785;29;114879;-83
2023/04/04 11:47:01;;;;;;;9.05;4.60;;;2.90;43.30;;;;;;4689590;29;114822;-84
2023/04/04 11:49:36;;;;;;;10.25;4.50;;;3.10;43.40;;;;;;4703393;29;115310;-84
2023/04/04 11:52:05;;;;;;;8.43;4.70;;;3.20;43.00;;;;;;4683699;29;114807;-84
2023/04/04 11:54:33;;;;;;;7.78;4.20;;;3.20;42.70;;;;;;4688863;29;114605;-85
2023/04/04 11:57:02;;;;;;;8.80;4.03;;;3.20;42.90;;;;;;4686837;29;114534;-84
2023/04/04 11:59:30;;;;;;;12.50;5.55;;;3.30;42.90;;;;;;4686232;29;117517;-83
2023/04/04 12:01:58;;;;;;;9.70;4.75;;;3.40;43.20;;;;;;4659076;29;118258;-84
2023/04/04 12:04:26;;;;;;;10.48;4.30;;;3.50;42.90;;;;;;4680599;29;114904;-83
2023/04/04 12:06:55;;;;;;;8.85;4.38;;;3.50;42.40;;;;;;4693814;29;114895;-83
2023/04/04 12:09:24;;;;;;;9.88;4.80;;;3.30;42.20;;;;;;4660241;29;116612;-83
2023/04/04 12:11:52;;;;;;;9.52;4.78;;;3.10;42.60;;;;;;4676810;29;116330;-82
2023/04/04 12:14:22;;;;;;;11.35;4.95;;;3.10;42.90;;;;;;4678931;29;114624;-83
2023/04/04 12:16:51;;;;;;;10.43;6.00;;;3.10;43.10;;;;;;4696171;29;114505;-84
2023/04/04 12:19:21;;;;;;;12.43;5.57;;;3.20;42.80;;;;;;4680981;29;115287;-83
2023/04/04 12:21:49;;;;;;;10.57;5.03;;;3.20;43.20;;;;;;4691691;29;114722;-84
2023/04/04 12:24:18;;;;;;;8.35;5.05;;;3.40;43.10;;;;;;4711025;29;114829;-84
2023/04/04 12:26:48;;;;;;;10.10;5.22;;;3.50;42.80;;;;;;4682750;29;114546;-85
2023/04/04 12:29:17;;;;;;;15.57;5.55;;;3.40;42.70;;;;;;4693525;29;114571;-83
2023/04/04 12:31:47;;;;;;;9.10;4.88;;;3.40;42.90;;;;;;4683469;29;114656;-83
2023/04/04 12:34:22;;;;;;;9.52;4.47;;;3.50;42.70;;;;;;4651993;29;116019;-83
2023/04/04 12:36:51;;;;;;;9.77;5.10;;;3.60;42.60;;;;;;4667996;29;114555;-84
2023/04/04 12:39:21;;;;;;;9.57;4.72;;;3.60;42.60;;;;;;4682317;29;115473;-84
2023/04/04 12:42:00;;;;;;;7.28;4.45;;;3.70;42.90;;;;;;4678774;29;114784;-84
2023/04/04 12:44:34;;;;;;;9.85;5.85;;;3.80;42.20;;;;;;4682540;29;114565;-83
2023/04/04 12:47:09;;;;;;;10.55;5.45;;;3.70;42.50;;;;;;4711331;29;114496;-84
2023/04/04 12:49:48;;;;;;;9.82;4.55;;;3.70;42.60;;;;;;4696293;29;115427;-83
2023/04/04 12:52:28;;;;;;;11.23;5.18;;;3.70;41.80;;;;;;4701838;29;114741;-85
2023/04/04 12:55:13;;;;;;;11.13;5.10;;;3.50;42.50;;;;;;4692093;29;116733;-85
2023/04/04 12:57:45;;;;;;;8.60;4.60;;;3.50;42.60;;;;;;4679676;29;118354;-86
2023/04/04 13:00:15;;;;;;;9.25;5.35;;;3.60;42.40;;;;;;4661473;29;115974;-85
2023/04/04 13:02:45;;;;;;;9.15;4.40;;;3.60;41.90;;;;;;4682990;29;115015;-85
2023/04/04 13:05:12;;;;;;;11.45;5.15;;;3.60;42.10;;;;;;4652693;29;114900;-85
2023/04/04 13:07:43;;;;;;;9.27;5.07;;;3.60;42.50;;;;;;4651365;29;114635;-85
2023/04/04 13:10:16;;;;;;;10.65;4.97;;;3.60;42.50;;;;;;4681996;29;115972;-85
2023/04/04 13:13:38;;;;;;;8.98;4.85;;;3.50;42.60;;;;;;4683207;29;114680;-86
2023/04/04 13:16:31;;;;;;;6.72;4.22;;;3.50;43.40;;;;;;4665764;29;114689;-86
2023/04/04 13:19:00;;;;;;;8.15;5.32;;;3.50;43.20;;;;;;4692005;29;114558;-86
2023/04/04 13:21:28;;;;;;;9.25;4.30;;;3.60;42.90;;;;;;4683710;29;115298;-86
2023/04/04 13:23:56;;;;;;;8.38;4.35;;;3.60;42.50;;;;;;4673635;29;117975;-86
2023/04/04 13:26:23;;;;;;;10.05;4.55;;;3.70;42.40;;;;;;4708329;29;114955;-86
2023/04/04 13:29:00;;;;;;;8.18;4.60;;;3.60;42.20;;;;;;4722159;29;115641;-86
2023/04/04 13:31:28;;;;;;;9.95;4.68;;;3.60;42.30;;;;;;4692821;29;116998;-87
2023/04/04 13:33:55;;;;;;;13.45;3.95;;;3.70;42.20;;;;;;4704886;29;114864;-86
2023/04/04 13:36:23;;;;;;;7.60;4.05;;;3.70;42.00;;;;;;4676697;29;114699;-87
2023/04/04 13:38:50;;;;;;;6.03;3.95;;;3.50;41.40;;;;;;4688110;29;114632;-86
2023/04/04 13:41:21;;;;;;;9.63;4.18;;;3.20;41.30;;;;;;4692214;29;115280;-85
2023/04/04 13:43:49;;;;;;;8.43;4.60;;;3.00;41.50;;;;;;4677293;29;114900;-83
2023/04/04 13:46:17;;;;;;;8.77;4.25;;;2.80;41.60;;;;;;4694528;29;114832;-84
2023/04/04 13:48:44;;;;;;;11.10;5.18;;;2.70;41.60;;;;;;4720146;29;114563;-84
2023/04/04 13:51:14;;;;;;;6.97;4.65;;;2.70;42.20;;;;;;4685117;29;115693;-85
2023/04/04 13:53:44;;;;;;;9.82;5.05;;;2.70;42.50;;;;;;4691192;29;118181;-85
2023/04/04 13:56:11;;;;;;;9.88;5.18;;;2.80;42.60;;;;;;4680702;29;114485;-83
2023/04/04 13:58:44;;;;;;;8.68;4.80;;;2.90;42.70;;;;;;4669399;29;115011;-85
2023/04/04 14:01:12;;;;;;;8.02;4.28;;;2.90;42.50;;;;;;4726970;29;115149;-85
2023/04/04 14:03:39;;;;;;;8.25;4.25;;;2.90;42.20;;;;;;4695601;29;114733;-84
2023/04/04 14:06:07;;;;;;;7.40;4.03;;;2.70;42.40;;;;;;4708812;29;114491;-83
2023/04/04 14:08:38;;;;;;;7.22;4.18;;;2.60;42.60;;;;;;4708776;29;114438;-84
2023/04/04 14:11:06;;;;;;;9.60;4.65;;;2.50;42.90;;;;;;4678934;29;116559;-84
2023/04/04 14:13:35;;;;;;;5.28;3.67;;;2.40;43.30;;;;;;4668581;29;118469;-84
2023/04/04 14:16:03;;;;;;;11.60;5.05;;;2.40;43.30;;;;;;4708389;29;118022;-85
2023/04/04 14:18:33;;;;;;;9.27;4.70;;;2.40;43.60;;;;;;4693334;29;114811;-84
2023/04/04 14:21:04;;;;;;;9.80;5.40;;;2.60;43.70;;;;;;4664212;29;116604;-84
2023/04/04 14:23:33;;;;;;;10.85;5.03;;;2.60;43.60;;;;;;4663549;29;116404;-84
2023/04/04 14:26:03;;;;;;;11.27;6.13;;;2.80;43.60;;;;;;4668557;29;114817;-85
2023/04/04 14:28:31;;;;;;;9.50;4.82;;;3.00;43.60;;;;;;4660285;29;115092;-84
2023/04/04 14:31:01;;;;;;;10.77;4.75;;;3.10;42.10;;;;;;4677803;29;118661;-85
2023/04/04 14:33:30;;;;;;;10.80;5.10;;;2.90;42.40;;;;;;4671797;29;119009;-85
2023/04/04 14:35:59;;;;;;;10.48;5.60;;;2.80;42.60;;;;;;4706744;29;114732;-85
2023/04/04 14:38:30;;;;;;;8.77;5.20;;;2.80;42.40;;;;;;4676315;29;114706;-85
2023/04/04 14:40:59;;;;;;;7.45;4.80;;;2.70;42.60;;;;;;4710217;29;117420;-84
2023/04/04 14:43:27;;;;;;;10.75;5.25;;;2.70;42.80;;;;;;4704693;29;114906;-84
2023/04/04 14:45:56;;;;;;;7.43;3.90;;;2.70;42.70;;;;;;4676599;29;114888;-84
2023/04/04 14:48:24;;;;;;;12.15;5.20;;;2.60;42.40;;;;;;4693853;29;114981;-83